CST,Max TemperatureF,Mean TemperatureF,Min TemperatureF,Max Dew PointF,MeanDew PointF,Min DewpointF,Max Humidity, Mean Humidity, Min Humidity, Max Sea Level PressureIn, Mean Sea Level PressureIn, Min Sea Level PressureIn, Max VisibilityMiles, Mean VisibilityMiles, Min VisibilityMiles, Max Wind SpeedMPH, Mean Wind SpeedMPH, Max Gust SpeedMPH,PrecipitationIn, CloudCover, Events, WindDirDegrees
2013-1-1,24,16,9,16,11,5,88,80,62,30.24,30.16,30.06,,,,13,7,,0.00,,,231
2013-1-2,32,26,21,25,23,16,88,80,73,30.31,30.13,30.04,,,,20,13,24,0.00,,,308
2013-1-3,27,21,12,19,14,7,89,76,66,30.39,30.33,30.22,,,,21,11,,0.00,,,271
2013-1-4,28,19,8,13,8,4,83,67,53,30.23,30.17,30.10,,,,12,7,,0.00,,,257
2013-1-5,32,18,3,20,11,-1,84,75,61,30.30,30.15,30.05,,,,30,12,37,0.00,,,299
2013-1-6,36,24,12,24,16,7,84,74,59,30.29,30.13,29.89,,,,20,9,,0.00,,,208
2013-1-7,37,29,21,24,19,15,85,71,57,30.04,29.97,29.89,,,,14,8,76,0.00,,,244
2013-1-8,41,32,23,31,24,16,79,70,59,30.14,29.88,29.74,,,,14,10,,0.00,,,245
2013-1-9,43,31,19,30,24,15,85,69,58,30.30,30.19,30.06,,,,24,10,32,0.00,,,192
2013-1-10,41,38,35,33,29,23,92,70,55,30.06,29.81,29.51,,,,20,15,22,0.01,,,163
2013-1-11,36,25,12,33,23,8,92,87,78,29.79,29.53,29.43,,,,26,14,37,0.04,,,306
2013-1-12,12,9,6,8,2,-3,81,73,64,30.28,30.10,29.82,,,,25,19,37,0.01,,,318
2013-1-13,19,10,0,7,0,-7,77,69,54,30.35,30.29,30.25,,,,13,9,,0.00,,,291
2013-1-14,18,8,-2,7,0,-9,83,72,56,30.42,30.35,30.22,,,,14,6,78,0.00,,,212
2013-1-15,35,16,1,31,6,-6,92,67,51,30.27,30.11,29.87,,,,18,7,,0.02,,,216
2013-1-16,42,32,23,31,27,17,88,71,58,30.30,30.02,29.85,,,,22,14,29,0.01,,,306
2013-1-17,41,31,21,31,26,19,92,83,67,30.44,30.32,30.09,,,,13,6,,0.00,,,177
2013-1-18,50,40,30,28,26,21,75,61,41,30.06,29.91,29.82,,,,17,10,29,0.00,,,256
2013-1-19,44,27,9,29,20,-1,72,62,51,30.41,30.11,29.81,,,,22,13,30,0.00,,,322
2013-1-20,18,10,0,8,1,-13,77,67,54,30.55,30.47,30.37,,,,21,8,29,0.02,,,356
2013-1-21,9,4,0,-1,-6,-12,67,61,57,30.55,30.46,30.39,,,,17,11,,0.01,,,321
2013-1-22,16,11,6,9,4,-2,84,76,61,30.37,30.30,30.21,,,,14,6,,0.02,,,126
2013-1-23,19,10,1,7,3,-6,84,72,54,30.62,30.43,30.21,,,,14,7,,0.00,,,1
2013-1-24,19,10,0,10,0,-7,76,65,50,30.61,30.29,30.10,,,,28,15,33,0.01,,,140
2013-1-25,35,24,12,21,16,7,85,73,56,30.26,30.19,30.12,,,,14,9,,0.00,,,337
2013-1-26,39,24,10,28,15,3,85,76,62,30.23,30.04,29.90,,,,16,12,,0.00,,,98
2013-1-27,39,32,24,28,23,20,85,76,60,29.88,29.78,29.72,,,,8,3,,0.00,,,333
2013-1-28,32,26,19,29,24,17,92,86,75,29.88,29.81,29.75,,,,15,6,18,0.13,,,324
2013-1-29,32,25,18,29,23,13,92,86,81,29.99,29.83,29.73,,,,22,9,30,0.03,,,327
2013-1-30,19,11,1,15,3,-8,81,74,63,30.06,30.00,29.95,,,,23,16,33,0.00,,,323
2013-1-31,1,-2,-6,-8,-12,-16,72,65,59,30.46,30.35,30.09,,,,29,15,36,0.00,,,316